sensor_id;sensor_type;location;lat;lon;timestamp;P1;durP1;ratioP1;P2;durP2;ratioP2
57790;SDS011;43621;51.798;21.588;2022-10-16T00:02:03;24.80;;;16.80;;
57790;SDS011;43621;51.798;21.588;2022-10-16T00:06:17;25.90;;;17.10;;
57790;SDS011;43621;51.798;21.588;2022-10-16T00:14:50;23.80;;;16.70;;
57790;SDS011;43621;51.798;21.588;2022-10-16T00:18:56;27.40;;;16.50;;
57790;SDS011;43621;51.798;21.588;2022-10-16T00:23:01;24.40;;;17.00;;
57790;SDS011;43621;51.798;21.588;2022-10-16T00:27:06;30.00;;;18.30;;
57790;SDS011;43621;51.798;21.588;2022-10-16T00:31:11;24.00;;;17.60;;
57790;SDS011;43621;51.798;21.588;2022-10-16T00:35:17;27.80;;;16.10;;
57790;SDS011;43621;51.798;21.588;2022-10-16T00:39:22;24.60;;;16.60;;
57790;SDS011;43621;51.798;21.588;2022-10-16T00:43:35;25.40;;;17.60;;
57790;SDS011;43621;51.798;21.588;2022-10-16T00:47:43;25.70;;;16.50;;
57790;SDS011;43621;51.798;21.588;2022-10-16T00:51:52;22.60;;;16.00;;
57790;SDS011;43621;51.798;21.588;2022-10-16T00:55:58;26.00;;;17.30;;
57790;SDS011;43621;51.798;21.588;2022-10-16T01:00:05;27.10;;;17.10;;
57790;SDS011;43621;51.798;21.588;2022-10-16T01:04:12;32.40;;;16.30;;
57790;SDS011;43621;51.798;21.588;2022-10-16T01:08:18;27.80;;;17.20;;
57790;SDS011;43621;51.798;21.588;2022-10-16T01:12:36;27.70;;;16.90;;
57790;SDS011;43621;51.798;21.588;2022-10-16T01:16:49;27.90;;;17.70;;
57790;SDS011;43621;51.798;21.588;2022-10-16T01:21:02;27.80;;;15.70;;
57790;SDS011;43621;51.798;21.588;2022-10-16T01:25:11;27.60;;;15.80;;
57790;SDS011;43621;51.798;21.588;2022-10-16T01:29:23;25.40;;;16.60;;
57790;SDS011;43621;51.798;21.588;2022-10-16T01:33:34;27.20;;;16.90;;
57790;SDS011;43621;51.798;21.588;2022-10-16T01:37:43;27.80;;;17.70;;
57790;SDS011;43621;51.798;21.588;2022-10-16T01:41:54;24.40;;;15.90;;
57790;SDS011;43621;51.798;21.588;2022-10-16T01:46:04;26.00;;;17.00;;
57790;SDS011;43621;51.798;21.588;2022-10-16T01:50:11;24.10;;;16.40;;
57790;SDS011;43621;51.798;21.588;2022-10-16T01:54:18;23.30;;;15.70;;
57790;SDS011;43621;51.798;21.588;2022-10-16T01:58:26;24.70;;;15.50;;
57790;SDS011;43621;51.798;21.588;2022-10-16T02:02:37;25.40;;;16.40;;
57790;SDS011;43621;51.798;21.588;2022-10-16T02:06:43;24.40;;;16.50;;
57790;SDS011;43621;51.798;21.588;2022-10-16T02:10:48;23.40;;;16.30;;
57790;SDS011;43621;51.798;21.588;2022-10-16T02:14:53;24.50;;;16.10;;
57790;SDS011;43621;51.798;21.588;2022-10-16T02:18:58;23.00;;;15.60;;
57790;SDS011;43621;51.798;21.588;2022-10-16T02:23:03;23.80;;;15.80;;
57790;SDS011;43621;51.798;21.588;2022-10-16T02:27:15;23.60;;;16.00;;
57790;SDS011;43621;51.798;21.588;2022-10-16T02:31:26;21.70;;;14.90;;
57790;SDS011;43621;51.798;21.588;2022-10-16T02:35:34;27.40;;;14.60;;
57790;SDS011;43621;51.798;21.588;2022-10-16T02:39:41;25.10;;;16.40;;
57790;SDS011;43621;51.798;21.588;2022-10-16T02:43:46;29.00;;;16.60;;
57790;SDS011;43621;51.798;21.588;2022-10-16T02:47:52;24.30;;;16.30;;
57790;SDS011;43621;51.798;21.588;2022-10-16T02:51:57;28.90;;;16.30;;
57790;SDS011;43621;51.798;21.588;2022-10-16T02:56:02;23.30;;;15.80;;
57790;SDS011;43621;51.798;21.588;2022-10-16T03:00:08;23.80;;;15.70;;
57790;SDS011;43621;51.798;21.588;2022-10-16T03:04:15;24.40;;;16.10;;
57790;SDS011;43621;51.798;21.588;2022-10-16T03:08:20;25.50;;;16.80;;
57790;SDS011;43621;51.798;21.588;2022-10-16T03:12:28;24.70;;;15.20;;
57790;SDS011;43621;51.798;21.588;2022-10-16T03:16:34;24.80;;;15.20;;
57790;SDS011;43621;51.798;21.588;2022-10-16T03:20:44;28.00;;;16.00;;
57790;SDS011;43621;51.798;21.588;2022-10-16T03:24:50;23.50;;;16.20;;
57790;SDS011;43621;51.798;21.588;2022-10-16T03:28:55;23.50;;;15.40;;
57790;SDS011;43621;51.798;21.588;2022-10-16T03:33:00;21.50;;;13.60;;
57790;SDS011;43621;51.798;21.588;2022-10-16T03:37:05;27.00;;;15.70;;
57790;SDS011;43621;51.798;21.588;2022-10-16T03:41:10;25.30;;;15.80;;
57790;SDS011;43621;51.798;21.588;2022-10-16T03:45:16;21.70;;;15.20;;
57790;SDS011;43621;51.798;21.588;2022-10-16T03:49:21;20.80;;;14.50;;
57790;SDS011;43621;51.798;21.588;2022-10-16T03:53:25;21.10;;;14.40;;
57790;SDS011;43621;51.798;21.588;2022-10-16T03:57:30;22.40;;;15.10;;
57790;SDS011;43621;51.798;21.588;2022-10-16T04:01:35;25.60;;;15.10;;
57790;SDS011;43621;51.798;21.588;2022-10-16T04:05:40;25.70;;;16.30;;
57790;SDS011;43621;51.798;21.588;2022-10-16T04:09:45;18.70;;;13.50;;
57790;SDS011;43621;51.798;21.588;2022-10-16T04:13:50;25.30;;;14.80;;
57790;SDS011;43621;51.798;21.588;2022-10-16T04:17:55;21.80;;;13.90;;
57790;SDS011;43621;51.798;21.588;2022-10-16T04:22:00;22.00;;;15.60;;
57790;SDS011;43621;51.798;21.588;2022-10-16T04:26:05;20.70;;;13.90;;
57790;SDS011;43621;51.798;21.588;2022-10-16T04:30:10;25.10;;;15.30;;
57790;SDS011;43621;51.798;21.588;2022-10-16T04:34:15;24.10;;;14.60;;
57790;SDS011;43621;51.798;21.588;2022-10-16T04:38:20;27.10;;;16.30;;
57790;SDS011;43621;51.798;21.588;2022-10-16T04:42:25;22.50;;;15.30;;
57790;SDS011;43621;51.798;21.588;2022-10-16T04:46:30;24.40;;;14.10;;
57790;SDS011;43621;51.798;21.588;2022-10-16T04:50:35;22.30;;;15.10;;
57790;SDS011;43621;51.798;21.588;2022-10-16T04:54:40;21.70;;;14.40;;
57790;SDS011;43621;51.798;21.588;2022-10-16T04:58:45;24.90;;;15.70;;
57790;SDS011;43621;51.798;21.588;2022-10-16T05:02:50;23.40;;;15.70;;
57790;SDS011;43621;51.798;21.588;2022-10-16T05:06:56;24.50;;;14.30;;
57790;SDS011;43621;51.798;21.588;2022-10-16T05:11:00;25.10;;;14.90;;
57790;SDS011;43621;51.798;21.588;2022-10-16T05:15:07;27.50;;;17.60;;
57790;SDS011;43621;51.798;21.588;2022-10-16T05:19:13;29.50;;;16.90;;
57790;SDS011;43621;51.798;21.588;2022-10-16T05:23:18;33.70;;;18.70;;
57790;SDS011;43621;51.798;21.588;2022-10-16T05:27:23;26.00;;;16.30;;
57790;SDS011;43621;51.798;21.588;2022-10-16T05:31:27;34.30;;;16.60;;
57790;SDS011;43621;51.798;21.588;2022-10-16T05:35:33;28.80;;;16.40;;
57790;SDS011;43621;51.798;21.588;2022-10-16T05:39:39;23.20;;;15.40;;
57790;SDS011;43621;51.798;21.588;2022-10-16T05:43:48;29.10;;;16.80;;
57790;SDS011;43621;51.798;21.588;2022-10-16T05:47:52;24.90;;;17.50;;
57790;SDS011;43621;51.798;21.588;2022-10-16T05:51:57;28.80;;;17.10;;
57790;SDS011;43621;51.798;21.588;2022-10-16T05:56:03;24.50;;;16.00;;
57790;SDS011;43621;51.798;21.588;2022-10-16T06:00:10;25.20;;;13.90;;
57790;SDS011;43621;51.798;21.588;2022-10-16T06:04:15;20.80;;;13.20;;
57790;SDS011;43621;51.798;21.588;2022-10-16T06:08:21;20.20;;;13.50;;
57790;SDS011;43621;51.798;21.588;2022-10-16T06:12:26;16.50;;;11.80;;
57790;SDS011;43621;51.798;21.588;2022-10-16T06:16:31;23.00;;;13.10;;
57790;SDS011;43621;51.798;21.588;2022-10-16T06:20:37;22.80;;;12.60;;
57790;SDS011;43621;51.798;21.588;2022-10-16T06:24:42;20.00;;;12.30;;
57790;SDS011;43621;51.798;21.588;2022-10-16T06:28:47;21.60;;;13.90;;
57790;SDS011;43621;51.798;21.588;2022-10-16T06:32:52;23.90;;;15.50;;
57790;SDS011;43621;51.798;21.588;2022-10-16T06:36:57;25.90;;;17.10;;
57790;SDS011;43621;51.798;21.588;2022-10-16T06:41:02;19.70;;;13.80;;
57790;SDS011;43621;51.798;21.588;2022-10-16T06:45:09;26.50;;;19.00;;
57790;SDS011;43621;51.798;21.588;2022-10-16T06:49:15;22.40;;;14.50;;
57790;SDS011;43621;51.798;21.588;2022-10-16T06:53:25;20.90;;;13.90;;
57790;SDS011;43621;51.798;21.588;2022-10-16T06:57:31;21.40;;;14.30;;
57790;SDS011;43621;51.798;21.588;2022-10-16T07:01:36;19.80;;;11.90;;
57790;SDS011;43621;51.798;21.588;2022-10-16T07:05:41;15.60;;;12.50;;
57790;SDS011;43621;51.798;21.588;2022-10-16T07:09:46;15.60;;;10.70;;
57790;SDS011;43621;51.798;21.588;2022-10-16T07:13:51;16.60;;;11.00;;
57790;SDS011;43621;51.798;21.588;2022-10-16T07:17:56;15.90;;;10.10;;
57790;SDS011;43621;51.798;21.588;2022-10-16T07:22:01;17.20;;;11.30;;
57790;SDS011;43621;51.798;21.588;2022-10-16T07:26:08;14.90;;;9.80;;
57790;SDS011;43621;51.798;21.588;2022-10-16T07:30:13;14.80;;;9.60;;
57790;SDS011;43621;51.798;21.588;2022-10-16T07:34:18;15.50;;;9.80;;
57790;SDS011;43621;51.798;21.588;2022-10-16T07:38:27;15.20;;;9.10;;
57790;SDS011;43621;51.798;21.588;2022-10-16T07:42:32;16.90;;;9.40;;
57790;SDS011;43621;51.798;21.588;2022-10-16T07:46:37;13.40;;;9.10;;
57790;SDS011;43621;51.798;21.588;2022-10-16T07:50:42;12.90;;;8.50;;
57790;SDS011;43621;51.798;21.588;2022-10-16T07:54:47;13.50;;;9.90;;
57790;SDS011;43621;51.798;21.588;2022-10-16T07:58:52;10.90;;;8.10;;
57790;SDS011;43621;51.798;21.588;2022-10-16T08:02:57;13.00;;;7.90;;
57790;SDS011;43621;51.798;21.588;2022-10-16T08:07:06;10.90;;;8.50;;
57790;SDS011;43621;51.798;21.588;2022-10-16T08:11:11;16.00;;;9.50;;
57790;SDS011;43621;51.798;21.588;2022-10-16T08:15:17;12.70;;;8.30;;
57790;SDS011;43621;51.798;21.588;2022-10-16T08:19:23;15.20;;;8.30;;
57790;SDS011;43621;51.798;21.588;2022-10-16T08:23:28;11.80;;;8.30;;
57790;SDS011;43621;51.798;21.588;2022-10-16T08:27:33;13.40;;;7.90;;
57790;SDS011;43621;51.798;21.588;2022-10-16T08:31:38;10.80;;;9.00;;
57790;SDS011;43621;51.798;21.588;2022-10-16T08:35:49;10.20;;;7.10;;
57790;SDS011;43621;51.798;21.588;2022-10-16T08:39:56;10.70;;;7.90;;
57790;SDS011;43621;51.798;21.588;2022-10-16T08:44:05;12.50;;;7.70;;
57790;SDS011;43621;51.798;21.588;2022-10-16T08:48:29;55.90;;;44.50;;
57790;SDS011;43621;51.798;21.588;2022-10-16T08:52:40;12.90;;;9.30;;
57790;SDS011;43621;51.798;21.588;2022-10-16T08:56:47;11.00;;;7.80;;
57790;SDS011;43621;51.798;21.588;2022-10-16T09:00:54;11.70;;;7.60;;
57790;SDS011;43621;51.798;21.588;2022-10-16T09:05:02;12.20;;;7.10;;
57790;SDS011;43621;51.798;21.588;2022-10-16T09:09:33;10.30;;;6.60;;
57790;SDS011;43621;51.798;21.588;2022-10-16T09:13:54;10.70;;;6.40;;
57790;SDS011;43621;51.798;21.588;2022-10-16T09:18:09;10.60;;;6.00;;
57790;SDS011;43621;51.798;21.588;2022-10-16T09:22:19;10.50;;;6.70;;
57790;SDS011;43621;51.798;21.588;2022-10-16T09:26:29;8.50;;;5.30;;
57790;SDS011;43621;51.798;21.588;2022-10-16T09:30:34;11.20;;;6.50;;
57790;SDS011;43621;51.798;21.588;2022-10-16T09:34:41;11.00;;;6.70;;
57790;SDS011;43621;51.798;21.588;2022-10-16T09:38:50;10.70;;;6.60;;
57790;SDS011;43621;51.798;21.588;2022-10-16T09:43:06;12.60;;;7.80;;
57790;SDS011;43621;51.798;21.588;2022-10-16T09:47:23;13.10;;;7.50;;
57790;SDS011;43621;51.798;21.588;2022-10-16T09:51:29;13.20;;;7.60;;
57790;SDS011;43621;51.798;21.588;2022-10-16T09:55:36;13.10;;;7.40;;
57790;SDS011;43621;51.798;21.588;2022-10-16T09:59:50;9.20;;;7.00;;
57790;SDS011;43621;51.798;21.588;2022-10-16T10:03:57;10.00;;;6.90;;
57790;SDS011;43621;51.798;21.588;2022-10-16T10:08:04;9.50;;;7.40;;
57790;SDS011;43621;51.798;21.588;2022-10-16T10:12:16;10.70;;;8.30;;
57790;SDS011;43621;51.798;21.588;2022-10-16T10:16:24;10.10;;;7.30;;
57790;SDS011;43621;51.798;21.588;2022-10-16T10:20:30;12.70;;;7.40;;
57790;SDS011;43621;51.798;21.588;2022-10-16T10:24:37;16.30;;;7.60;;
57790;SDS011;43621;51.798;21.588;2022-10-16T10:28:49;9.30;;;7.50;;
57790;SDS011;43621;51.798;21.588;2022-10-16T10:33:20;10.20;;;8.00;;
57790;SDS011;43621;51.798;21.588;2022-10-16T10:37:40;12.30;;;7.30;;
57790;SDS011;43621;51.798;21.588;2022-10-16T10:42:08;13.80;;;8.20;;
57790;SDS011;43621;51.798;21.588;2022-10-16T10:46:26;9.20;;;6.80;;
57790;SDS011;43621;51.798;21.588;2022-10-16T10:50:38;14.30;;;8.40;;
57790;SDS011;43621;51.798;21.588;2022-10-16T10:54:48;10.80;;;7.20;;
57790;SDS011;43621;51.798;21.588;2022-10-16T10:59:01;11.30;;;8.10;;
57790;SDS011;43621;51.798;21.588;2022-10-16T11:03:24;13.40;;;10.00;;
57790;SDS011;43621;51.798;21.588;2022-10-16T11:07:45;12.90;;;8.80;;
57790;SDS011;43621;51.798;21.588;2022-10-16T11:11:56;12.00;;;8.00;;
57790;SDS011;43621;51.798;21.588;2022-10-16T11:16:07;10.20;;;7.70;;
57790;SDS011;43621;51.798;21.588;2022-10-16T11:20:19;10.80;;;7.70;;
57790;SDS011;43621;51.798;21.588;2022-10-16T11:24:32;9.70;;;7.30;;
57790;SDS011;43621;51.798;21.588;2022-10-16T11:28:45;12.90;;;8.30;;
57790;SDS011;43621;51.798;21.588;2022-10-16T11:32:54;10.60;;;7.70;;
57790;SDS011;43621;51.798;21.588;2022-10-16T11:37:08;12.00;;;7.40;;
57790;SDS011;43621;51.798;21.588;2022-10-16T11:41:20;12.60;;;7.60;;
57790;SDS011;43621;51.798;21.588;2022-10-16T11:45:33;13.90;;;8.20;;
57790;SDS011;43621;51.798;21.588;2022-10-16T11:49:44;13.90;;;8.50;;
57790;SDS011;43621;51.798;21.588;2022-10-16T11:53:55;12.30;;;7.80;;
57790;SDS011;43621;51.798;21.588;2022-10-16T11:58:05;13.40;;;8.70;;
57790;SDS011;43621;51.798;21.588;2022-10-16T12:02:25;11.70;;;8.20;;
57790;SDS011;43621;51.798;21.588;2022-10-16T12:06:37;11.80;;;7.70;;
57790;SDS011;43621;51.798;21.588;2022-10-16T12:10:47;16.70;;;8.40;;
57790;SDS011;43621;51.798;21.588;2022-10-16T12:15:01;11.40;;;7.80;;
57790;SDS011;43621;51.798;21.588;2022-10-16T12:19:22;13.20;;;8.20;;
57790;SDS011;43621;51.798;21.588;2022-10-16T12:23:29;12.20;;;8.40;;
57790;SDS011;43621;51.798;21.588;2022-10-16T12:27:35;13.10;;;8.00;;
57790;SDS011;43621;51.798;21.588;2022-10-16T12:31:42;12.60;;;8.20;;
57790;SDS011;43621;51.798;21.588;2022-10-16T12:35:49;11.50;;;7.80;;
57790;SDS011;43621;51.798;21.588;2022-10-16T12:39:55;11.00;;;8.00;;
57790;SDS011;43621;51.798;21.588;2022-10-16T12:44:02;9.90;;;7.30;;
57790;SDS011;43621;51.798;21.588;2022-10-16T12:48:19;13.40;;;9.00;;
57790;SDS011;43621;51.798;21.588;2022-10-16T12:52:26;12.50;;;7.90;;
57790;SDS011;43621;51.798;21.588;2022-10-16T12:56:41;10.70;;;7.60;;
57790;SDS011;43621;51.798;21.588;2022-10-16T13:00:56;22.60;;;12.10;;
57790;SDS011;43621;51.798;21.588;2022-10-16T13:05:14;14.80;;;8.70;;
57790;SDS011;43621;51.798;21.588;2022-10-16T13:09:31;13.20;;;8.20;;
57790;SDS011;43621;51.798;21.588;2022-10-16T13:18:21;10.80;;;7.90;;
57790;SDS011;43621;51.798;21.588;2022-10-16T13:22:34;15.10;;;9.20;;
57790;SDS011;43621;51.798;21.588;2022-10-16T13:26:49;14.40;;;8.80;;
57790;SDS011;43621;51.798;21.588;2022-10-16T13:31:02;14.60;;;8.20;;
57790;SDS011;43621;51.798;21.588;2022-10-16T13:35:19;16.40;;;10.00;;
57790;SDS011;43621;51.798;21.588;2022-10-16T13:39:30;14.00;;;9.30;;
57790;SDS011;43621;51.798;21.588;2022-10-16T13:43:36;15.00;;;9.00;;
57790;SDS011;43621;51.798;21.588;2022-10-16T13:47:43;13.40;;;9.60;;
57790;SDS011;43621;51.798;21.588;2022-10-16T13:51:55;18.70;;;10.60;;
57790;SDS011;43621;51.798;21.588;2022-10-16T13:56:01;20.40;;;12.10;;
57790;SDS011;43621;51.798;21.588;2022-10-16T14:00:18;22.70;;;11.80;;
57790;SDS011;43621;51.798;21.588;2022-10-16T14:04:25;23.50;;;12.10;;
57790;SDS011;43621;51.798;21.588;2022-10-16T14:08:34;15.80;;;10.60;;
57790;SDS011;43621;51.798;21.588;2022-10-16T14:12:39;16.10;;;11.20;;
57790;SDS011;43621;51.798;21.588;2022-10-16T14:16:44;17.50;;;10.40;;
57790;SDS011;43621;51.798;21.588;2022-10-16T14:20:50;18.60;;;11.50;;
57790;SDS011;43621;51.798;21.588;2022-10-16T14:24:55;23.70;;;13.90;;
57790;SDS011;43621;51.798;21.588;2022-10-16T14:29:10;18.20;;;11.70;;
57790;SDS011;43621;51.798;21.588;2022-10-16T14:33:20;20.80;;;11.90;;
57790;SDS011;43621;51.798;21.588;2022-10-16T14:37:28;21.20;;;12.40;;
57790;SDS011;43621;51.798;21.588;2022-10-16T14:41:40;27.40;;;16.70;;
57790;SDS011;43621;51.798;21.588;2022-10-16T14:45:51;34.20;;;18.60;;
57790;SDS011;43621;51.798;21.588;2022-10-16T14:49:58;30.20;;;16.90;;
57790;SDS011;43621;51.798;21.588;2022-10-16T14:54:03;39.80;;;23.30;;
57790;SDS011;43621;51.798;21.588;2022-10-16T14:58:10;30.20;;;19.10;;
57790;SDS011;43621;51.798;21.588;2022-10-16T15:02:20;21.80;;;14.40;;
57790;SDS011;43621;51.798;21.588;2022-10-16T15:06:30;24.80;;;13.50;;
57790;SDS011;43621;51.798;21.588;2022-10-16T15:10:38;25.90;;;15.90;;
57790;SDS011;43621;51.798;21.588;2022-10-16T15:14:45;35.00;;;19.30;;
57790;SDS011;43621;51.798;21.588;2022-10-16T15:18:50;35.40;;;18.40;;
57790;SDS011;43621;51.798;21.588;2022-10-16T15:22:56;37.20;;;20.90;;
57790;SDS011;43621;51.798;21.588;2022-10-16T15:27:01;25.00;;;16.20;;
57790;SDS011;43621;51.798;21.588;2022-10-16T15:31:06;32.70;;;21.30;;
57790;SDS011;43621;51.798;21.588;2022-10-16T15:35:10;30.10;;;17.70;;
57790;SDS011;43621;51.798;21.588;2022-10-16T15:39:17;37.50;;;22.30;;
57790;SDS011;43621;51.798;21.588;2022-10-16T15:43:22;42.00;;;23.30;;
57790;SDS011;43621;51.798;21.588;2022-10-16T15:47:27;40.70;;;24.10;;
57790;SDS011;43621;51.798;21.588;2022-10-16T15:51:32;39.60;;;23.50;;
57790;SDS011;43621;51.798;21.588;2022-10-16T15:55:40;50.20;;;28.90;;
57790;SDS011;43621;51.798;21.588;2022-10-16T15:59:45;36.60;;;22.60;;
57790;SDS011;43621;51.798;21.588;2022-10-16T16:03:51;46.30;;;24.90;;
57790;SDS011;43621;51.798;21.588;2022-10-16T16:07:57;81.50;;;42.90;;
57790;SDS011;43621;51.798;21.588;2022-10-16T16:12:02;89.00;;;52.30;;
57790;SDS011;43621;51.798;21.588;2022-10-16T16:16:08;45.50;;;29.80;;
57790;SDS011;43621;51.798;21.588;2022-10-16T16:20:14;43.10;;;31.50;;
57790;SDS011;43621;51.798;21.588;2022-10-16T16:24:19;39.90;;;28.00;;
57790;SDS011;43621;51.798;21.588;2022-10-16T16:28:24;38.70;;;22.80;;
57790;SDS011;43621;51.798;21.588;2022-10-16T16:32:29;48.00;;;28.60;;
57790;SDS011;43621;51.798;21.588;2022-10-16T16:36:34;47.50;;;30.10;;
57790;SDS011;43621;51.798;21.588;2022-10-16T16:40:39;50.90;;;29.40;;
57790;SDS011;43621;51.798;21.588;2022-10-16T16:44:45;54.40;;;33.40;;
57790;SDS011;43621;51.798;21.588;2022-10-16T16:48:52;56.40;;;34.50;;
57790;SDS011;43621;51.798;21.588;2022-10-16T16:52:58;65.60;;;38.90;;
57790;SDS011;43621;51.798;21.588;2022-10-16T16:57:03;51.80;;;33.20;;
57790;SDS011;43621;51.798;21.588;2022-10-16T17:01:08;39.90;;;25.30;;
57790;SDS011;43621;51.798;21.588;2022-10-16T17:05:14;36.50;;;23.10;;
57790;SDS011;43621;51.798;21.588;2022-10-16T17:09:19;55.40;;;31.60;;
57790;SDS011;43621;51.798;21.588;2022-10-16T17:13:24;95.70;;;44.10;;
57790;SDS011;43621;51.798;21.588;2022-10-16T17:17:31;66.00;;;36.50;;
57790;SDS011;43621;51.798;21.588;2022-10-16T17:21:36;76.70;;;46.10;;
57790;SDS011;43621;51.798;21.588;2022-10-16T17:25:41;43.20;;;27.10;;
57790;SDS011;43621;51.798;21.588;2022-10-16T17:29:51;62.90;;;38.50;;
57790;SDS011;43621;51.798;21.588;2022-10-16T17:33:56;60.20;;;35.40;;
57790;SDS011;43621;51.798;21.588;2022-10-16T17:38:01;64.10;;;36.90;;
57790;SDS011;43621;51.798;21.588;2022-10-16T17:42:07;44.70;;;28.20;;
57790;SDS011;43621;51.798;21.588;2022-10-16T17:46:12;41.90;;;24.80;;
57790;SDS011;43621;51.798;21.588;2022-10-16T17:50:19;37.50;;;22.40;;
57790;SDS011;43621;51.798;21.588;2022-10-16T17:54:24;39.00;;;21.70;;
57790;SDS011;43621;51.798;21.588;2022-10-16T17:58:28;37.40;;;24.90;;
57790;SDS011;43621;51.798;21.588;2022-10-16T18:02:34;43.20;;;25.30;;
57790;SDS011;43621;51.798;21.588;2022-10-16T18:06:39;44.10;;;27.10;;
57790;SDS011;43621;51.798;21.588;2022-10-16T18:10:46;56.70;;;29.40;;
57790;SDS011;43621;51.798;21.588;2022-10-16T18:14:51;52.00;;;30.60;;
57790;SDS011;43621;51.798;21.588;2022-10-16T18:19:00;47.20;;;29.10;;
57790;SDS011;43621;51.798;21.588;2022-10-16T18:23:05;49.70;;;28.80;;
57790;SDS011;43621;51.798;21.588;2022-10-16T18:27:10;35.80;;;21.90;;
57790;SDS011;43621;51.798;21.588;2022-10-16T18:31:15;44.20;;;26.50;;
57790;SDS011;43621;51.798;21.588;2022-10-16T18:35:21;69.70;;;36.20;;
57790;SDS011;43621;51.798;21.588;2022-10-16T18:39:25;59.90;;;33.40;;
57790;SDS011;43621;51.798;21.588;2022-10-16T18:43:31;47.30;;;27.50;;
57790;SDS011;43621;51.798;21.588;2022-10-16T18:47:37;40.60;;;24.00;;
57790;SDS011;43621;51.798;21.588;2022-10-16T18:51:42;28.80;;;17.40;;
57790;SDS011;43621;51.798;21.588;2022-10-16T18:55:52;28.90;;;18.70;;
57790;SDS011;43621;51.798;21.588;2022-10-16T18:59:57;23.10;;;13.20;;
57790;SDS011;43621;51.798;21.588;2022-10-16T19:04:03;22.00;;;14.70;;
57790;SDS011;43621;51.798;21.588;2022-10-16T19:08:10;23.10;;;14.20;;
57790;SDS011;43621;51.798;21.588;2022-10-16T19:12:16;22.50;;;14.70;;
57790;SDS011;43621;51.798;21.588;2022-10-16T19:16:21;26.20;;;14.80;;
57790;SDS011;43621;51.798;21.588;2022-10-16T19:20:28;19.50;;;12.70;;
57790;SDS011;43621;51.798;21.588;2022-10-16T19:24:33;22.10;;;13.30;;
57790;SDS011;43621;51.798;21.588;2022-10-16T19:28:38;18.90;;;13.20;;
57790;SDS011;43621;51.798;21.588;2022-10-16T19:32:44;25.70;;;15.20;;
57790;SDS011;43621;51.798;21.588;2022-10-16T19:36:51;37.00;;;22.80;;
57790;SDS011;43621;51.798;21.588;2022-10-16T19:40:57;39.10;;;22.40;;
57790;SDS011;43621;51.798;21.588;2022-10-16T19:45:09;36.90;;;21.40;;
57790;SDS011;43621;51.798;21.588;2022-10-16T19:49:15;32.40;;;21.60;;
57790;SDS011;43621;51.798;21.588;2022-10-16T19:53:23;36.10;;;22.10;;
57790;SDS011;43621;51.798;21.588;2022-10-16T19:57:31;37.80;;;22.30;;
57790;SDS011;43621;51.798;21.588;2022-10-16T20:01:36;36.70;;;21.90;;
57790;SDS011;43621;51.798;21.588;2022-10-16T20:05:50;42.20;;;25.70;;
57790;SDS011;43621;51.798;21.588;2022-10-16T20:09:56;42.40;;;25.60;;
57790;SDS011;43621;51.798;21.588;2022-10-16T20:14:01;45.40;;;27.10;;
57790;SDS011;43621;51.798;21.588;2022-10-16T20:18:07;48.70;;;29.30;;
57790;SDS011;43621;51.798;21.588;2022-10-16T20:22:12;40.80;;;25.80;;
57790;SDS011;43621;51.798;21.588;2022-10-16T20:26:18;35.50;;;20.50;;
57790;SDS011;43621;51.798;21.588;2022-10-16T20:30:25;38.70;;;23.70;;
57790;SDS011;43621;51.798;21.588;2022-10-16T20:34:30;39.00;;;24.40;;
57790;SDS011;43621;51.798;21.588;2022-10-16T20:38:36;37.80;;;23.20;;
57790;SDS011;43621;51.798;21.588;2022-10-16T20:42:41;34.30;;;23.00;;
57790;SDS011;43621;51.798;21.588;2022-10-16T20:46:46;28.50;;;17.40;;
57790;SDS011;43621;51.798;21.588;2022-10-16T20:50:51;35.70;;;19.40;;
57790;SDS011;43621;51.798;21.588;2022-10-16T20:54:56;24.40;;;15.30;;
57790;SDS011;43621;51.798;21.588;2022-10-16T20:59:01;23.40;;;14.60;;
57790;SDS011;43621;51.798;21.588;2022-10-16T21:03:07;22.40;;;15.00;;
57790;SDS011;43621;51.798;21.588;2022-10-16T21:07:13;24.50;;;14.30;;
57790;SDS011;43621;51.798;21.588;2022-10-16T21:11:19;23.90;;;15.00;;
57790;SDS011;43621;51.798;21.588;2022-10-16T21:15:26;23.70;;;15.00;;
57790;SDS011;43621;51.798;21.588;2022-10-16T21:19:31;22.10;;;12.40;;
57790;SDS011;43621;51.798;21.588;2022-10-16T21:23:36;21.60;;;13.30;;
57790;SDS011;43621;51.798;21.588;2022-10-16T21:27:41;22.00;;;12.80;;
57790;SDS011;43621;51.798;21.588;2022-10-16T21:31:46;26.20;;;15.10;;
57790;SDS011;43621;51.798;21.588;2022-10-16T21:35:51;27.10;;;16.30;;
57790;SDS011;43621;51.798;21.588;2022-10-16T21:39:56;26.60;;;16.50;;
57790;SDS011;43621;51.798;21.588;2022-10-16T21:44:01;21.60;;;13.20;;
57790;SDS011;43621;51.798;21.588;2022-10-16T21:48:06;22.30;;;14.00;;
57790;SDS011;43621;51.798;21.588;2022-10-16T21:52:11;20.40;;;13.40;;
57790;SDS011;43621;51.798;21.588;2022-10-16T21:56:16;19.50;;;14.00;;
57790;SDS011;43621;51.798;21.588;2022-10-16T22:00:21;19.60;;;13.90;;
57790;SDS011;43621;51.798;21.588;2022-10-16T22:04:26;23.80;;;13.50;;
57790;SDS011;43621;51.798;21.588;2022-10-16T22:08:32;18.10;;;12.60;;
57790;SDS011;43621;51.798;21.588;2022-10-16T22:12:38;22.10;;;13.60;;
57790;SDS011;43621;51.798;21.588;2022-10-16T22:16:43;21.60;;;13.70;;
57790;SDS011;43621;51.798;21.588;2022-10-16T22:20:49;20.50;;;13.90;;
57790;SDS011;43621;51.798;21.588;2022-10-16T22:24:54;23.30;;;14.50;;
57790;SDS011;43621;51.798;21.588;2022-10-16T22:29:00;23.50;;;14.70;;
57790;SDS011;43621;51.798;21.588;2022-10-16T22:33:06;29.90;;;18.70;;
57790;SDS011;43621;51.798;21.588;2022-10-16T22:37:11;29.60;;;19.50;;
57790;SDS011;43621;51.798;21.588;2022-10-16T22:41:16;30.00;;;19.30;;
57790;SDS011;43621;51.798;21.588;2022-10-16T22:45:21;34.20;;;20.70;;
57790;SDS011;43621;51.798;21.588;2022-10-16T22:49:26;31.90;;;20.10;;
57790;SDS011;43621;51.798;21.588;2022-10-16T22:53:31;31.20;;;18.60;;
57790;SDS011;43621;51.798;21.588;2022-10-16T22:57:36;29.40;;;19.60;;
57790;SDS011;43621;51.798;21.588;2022-10-16T23:01:41;31.20;;;20.10;;
57790;SDS011;43621;51.798;21.588;2022-10-16T23:05:48;33.80;;;21.00;;
57790;SDS011;43621;51.798;21.588;2022-10-16T23:09:52;31.30;;;21.40;;
57790;SDS011;43621;51.798;21.588;2022-10-16T23:13:57;33.80;;;21.40;;
57790;SDS011;43621;51.798;21.588;2022-10-16T23:18:03;29.80;;;18.80;;
57790;SDS011;43621;51.798;21.588;2022-10-16T23:22:09;35.40;;;20.50;;
57790;SDS011;43621;51.798;21.588;2022-10-16T23:26:14;29.70;;;18.60;;
57790;SDS011;43621;51.798;21.588;2022-10-16T23:30:21;34.90;;;21.30;;
57790;SDS011;43621;51.798;21.588;2022-10-16T23:34:27;29.30;;;18.90;;
57790;SDS011;43621;51.798;21.588;2022-10-16T23:38:32;25.50;;;17.00;;
57790;SDS011;43621;51.798;21.588;2022-10-16T23:42:37;29.10;;;19.00;;
57790;SDS011;43621;51.798;21.588;2022-10-16T23:46:42;26.70;;;17.50;;
57790;SDS011;43621;51.798;21.588;2022-10-16T23:50:47;28.40;;;17.00;;
57790;SDS011;43621;51.798;21.588;2022-10-16T23:54:52;27.00;;;17.40;;
57790;SDS011;43621;51.798;21.588;2022-10-16T23:58:57;24.20;;;16.10;;
